sensor_id;sensor_type;location;lat;lon;timestamp;pressure;altitude;pressure_sealevel;temperature;humidity
48848;BME280;36611;51.638;5.784;2023-06-26T00:01:01;101157.22;;;31.55;39.25
48848;BME280;36611;51.638;5.784;2023-06-26T00:03:28;101146.13;;;31.55;39.41
48848;BME280;36611;51.638;5.784;2023-06-26T00:05:55;101139.72;;;31.55;39.29
48848;BME280;36611;51.638;5.784;2023-06-26T00:08:27;101153.59;;;31.55;39.14
48848;BME280;36611;51.638;5.784;2023-06-26T00:10:54;101139.72;;;31.55;39.03
48848;BME280;36611;51.638;5.784;2023-06-26T00:13:22;101135.00;;;31.55;38.78
48848;BME280;36611;51.638;5.784;2023-06-26T00:15:49;101136.94;;;31.55;38.99
48848;BME280;36611;51.638;5.784;2023-06-26T00:18:16;101135.00;;;31.55;39.33
48848;BME280;36611;51.638;5.784;2023-06-26T00:20:42;101132.22;;;31.55;38.89
48848;BME280;36611;51.638;5.784;2023-06-26T00:23:09;101128.63;;;31.55;38.89
48848;BME280;36611;51.638;5.784;2023-06-26T00:25:36;101127.75;;;31.54;39.04
48848;BME280;36611;51.638;5.784;2023-06-26T00:28:02;101127.75;;;31.54;39.11
48848;BME280;36611;51.638;5.784;2023-06-26T00:30:29;101120.28;;;31.55;39.07
48848;BME280;36611;51.638;5.784;2023-06-26T00:32:56;101116.41;;;31.56;39.19
48848;BME280;36611;51.638;5.784;2023-06-26T00:35:23;101115.81;;;31.54;39.23
48848;BME280;36611;51.638;5.784;2023-06-26T00:37:49;101125.84;;;31.55;38.94
48848;BME280;36611;51.638;5.784;2023-06-26T00:40:16;101123.06;;;31.55;39.12
48848;BME280;36611;51.638;5.784;2023-06-26T00:42:43;101131.38;;;31.55;38.86
48848;BME280;36611;51.638;5.784;2023-06-26T00:45:09;101123.91;;;31.55;39.23
48848;BME280;36611;51.638;5.784;2023-06-26T00:47:36;101117.50;;;31.55;39.28
48848;BME280;36611;51.638;5.784;2023-06-26T00:50:04;101124.16;;;31.54;39.06
48848;BME280;36611;51.638;5.784;2023-06-26T00:52:31;101113.88;;;31.54;38.95
48848;BME280;36611;51.638;5.784;2023-06-26T00:54:58;101113.03;;;31.54;38.93
48848;BME280;36611;51.638;5.784;2023-06-26T00:57:25;101115.81;;;31.54;39.15
48848;BME280;36611;51.638;5.784;2023-06-26T00:59:53;101113.28;;;31.52;39.02
48848;BME280;36611;51.638;5.784;2023-06-26T01:02:20;101125.00;;;31.54;39.04
48848;BME280;36611;51.638;5.784;2023-06-26T01:04:50;101120.53;;;31.53;39.18
48848;BME280;36611;51.638;5.784;2023-06-26T01:07:18;101116.66;;;31.54;39.26
48848;BME280;36611;51.638;5.784;2023-06-26T01:09:47;101116.66;;;31.54;39.24
48848;BME280;36611;51.638;5.784;2023-06-26T01:12:15;101114.13;;;31.53;39.21
48848;BME280;36611;51.638;5.784;2023-06-26T01:14:42;101116.91;;;31.53;39.04
48848;BME280;36611;51.638;5.784;2023-06-26T01:17:09;101117.75;;;31.53;39.14
48848;BME280;36611;51.638;5.784;2023-06-26T01:19:41;101120.53;;;31.53;39.13
48848;BME280;36611;51.638;5.784;2023-06-26T01:27:24;101129.09;;;31.52;38.92
48848;BME280;36611;51.638;5.784;2023-06-26T01:29:52;101127.16;;;31.52;39.18
48848;BME280;36611;51.638;5.784;2023-06-26T01:32:19;101129.94;;;31.52;38.79
48848;BME280;36611;51.638;5.784;2023-06-26T01:34:46;101131.88;;;31.52;38.88
48848;BME280;36611;51.638;5.784;2023-06-26T01:37:13;101135.50;;;31.52;39.23
48848;BME280;36611;51.638;5.784;2023-06-26T01:39:39;101138.25;;;31.52;38.90
48848;BME280;36611;51.638;5.784;2023-06-26T01:42:06;101134.66;;;31.52;38.69
48848;BME280;36611;51.638;5.784;2023-06-26T01:44:37;101147.44;;;31.53;38.73
48848;BME280;36611;51.638;5.784;2023-06-26T01:47:10;101143.81;;;31.52;39.09
48848;BME280;36611;51.638;5.784;2023-06-26T01:49:50;101152.16;;;31.52;39.01
48848;BME280;36611;51.638;5.784;2023-06-26T01:52:26;101154.91;;;31.52;38.95
48848;BME280;36611;51.638;5.784;2023-06-26T01:55:23;101156.84;;;31.52;38.81
48848;BME280;36611;51.638;5.784;2023-06-26T01:57:52;101157.94;;;31.51;38.96
48848;BME280;36611;51.638;5.784;2023-06-26T02:00:20;101160.72;;;31.51;39.18
48848;BME280;36611;51.638;5.784;2023-06-26T02:02:48;101152.38;;;31.51;38.85
48848;BME280;36611;51.638;5.784;2023-06-26T02:05:15;101169.03;;;31.51;38.87
48848;BME280;36611;51.638;5.784;2023-06-26T02:07:42;101169.03;;;31.51;38.71
48848;BME280;36611;51.638;5.784;2023-06-26T02:10:09;101177.13;;;31.52;39.03
48848;BME280;36611;51.638;5.784;2023-06-26T02:12:36;101174.34;;;31.52;38.92
48848;BME280;36611;51.638;5.784;2023-06-26T02:15:04;101173.50;;;31.52;39.01
48848;BME280;36611;51.638;5.784;2023-06-26T02:17:32;101182.06;;;31.50;38.96
48848;BME280;36611;51.638;5.784;2023-06-26T02:19:59;101181.84;;;31.52;38.82
48848;BME280;36611;51.638;5.784;2023-06-26T02:22:25;101185.69;;;31.51;38.79
48848;BME280;36611;51.638;5.784;2023-06-26T02:24:52;101181.84;;;31.52;39.04
48848;BME280;36611;51.638;5.784;2023-06-26T02:27:18;101182.94;;;31.51;38.86
48848;BME280;36611;51.638;5.784;2023-06-26T02:29:45;101175.44;;;31.51;38.60
48848;BME280;36611;51.638;5.784;2023-06-26T02:32:11;101181.22;;;31.50;39.04
48848;BME280;36611;51.638;5.784;2023-06-26T02:34:38;101183.78;;;31.51;38.73
48848;BME280;36611;51.638;5.784;2023-06-26T02:37:04;101185.69;;;31.51;38.83
48848;BME280;36611;51.638;5.784;2023-06-26T02:39:34;101179.31;;;31.50;38.54
48848;BME280;36611;51.638;5.784;2023-06-26T02:42:01;101174.59;;;31.51;38.76
48848;BME280;36611;51.638;5.784;2023-06-26T02:44:28;101184.00;;;31.50;38.66
48848;BME280;36611;51.638;5.784;2023-06-26T02:46:55;101191.25;;;31.51;38.52
48848;BME280;36611;51.638;5.784;2023-06-26T02:49:21;101188.47;;;31.51;38.69
48848;BME280;36611;51.638;5.784;2023-06-26T02:51:49;101186.78;;;31.50;38.72
48848;BME280;36611;51.638;5.784;2023-06-26T02:54:27;101194.28;;;31.49;38.82
48848;BME280;36611;51.638;5.784;2023-06-26T02:57:00;101194.28;;;31.49;38.91
48848;BME280;36611;51.638;5.784;2023-06-26T02:59:29;101201.50;;;31.50;38.92
48848;BME280;36611;51.638;5.784;2023-06-26T03:01:56;101209.00;;;31.50;38.82
48848;BME280;36611;51.638;5.784;2023-06-26T03:04:31;101206.09;;;31.45;38.74
48848;BME280;36611;51.638;5.784;2023-06-26T03:06:58;101210.78;;;31.44;38.90
48848;BME280;36611;51.638;5.784;2023-06-26T03:09:25;101210.56;;;31.46;38.70
48848;BME280;36611;51.638;5.784;2023-06-26T03:11:52;101226.13;;;31.47;38.98
48848;BME280;36611;51.638;5.784;2023-06-26T03:14:20;101222.50;;;31.46;38.59
48848;BME280;36611;51.638;5.784;2023-06-26T03:16:47;101217.56;;;31.48;38.86
48848;BME280;36611;51.638;5.784;2023-06-26T03:19:13;101213.09;;;31.47;38.77
48848;BME280;36611;51.638;5.784;2023-06-26T03:22:03;101214.19;;;31.46;38.83
48848;BME280;36611;51.638;5.784;2023-06-26T03:24:30;101215.03;;;31.47;38.70
48848;BME280;36611;51.638;5.784;2023-06-26T03:26:57;101210.56;;;31.46;38.66
48848;BME280;36611;51.638;5.784;2023-06-26T03:29:23;101224.44;;;31.46;38.87
48848;BME280;36611;51.638;5.784;2023-06-26T03:31:50;101224.19;;;31.47;38.75
48848;BME280;36611;51.638;5.784;2023-06-26T03:34:17;101229.75;;;31.47;38.59
48848;BME280;36611;51.638;5.784;2023-06-26T03:36:44;101232.53;;;31.47;38.61
48848;BME280;36611;51.638;5.784;2023-06-26T03:39:11;101231.69;;;31.47;38.82
48848;BME280;36611;51.638;5.784;2023-06-26T03:41:37;101232.53;;;31.47;38.56
48848;BME280;36611;51.638;5.784;2023-06-26T03:44:04;101234.44;;;31.47;38.47
48848;BME280;36611;51.638;5.784;2023-06-26T03:46:40;101222.50;;;31.46;38.47
48848;BME280;36611;51.638;5.784;2023-06-26T03:49:07;101235.53;;;31.46;38.84
48848;BME280;36611;51.638;5.784;2023-06-26T03:51:37;101224.44;;;31.46;38.71
48848;BME280;36611;51.638;5.784;2023-06-26T03:54:03;101226.13;;;31.47;38.48
48848;BME280;36611;51.638;5.784;2023-06-26T03:56:30;101223.34;;;31.47;38.50
48848;BME280;36611;51.638;5.784;2023-06-26T03:58:56;101232.75;;;31.46;38.51
48848;BME280;36611;51.638;5.784;2023-06-26T04:01:25;101229.13;;;31.45;38.93
48848;BME280;36611;51.638;5.784;2023-06-26T04:03:52;101233.59;;;31.46;38.54
48848;BME280;36611;51.638;5.784;2023-06-26T04:06:18;101232.75;;;31.46;38.53
48848;BME280;36611;51.638;5.784;2023-06-26T04:08:45;101233.84;;;31.45;38.44
48848;BME280;36611;51.638;5.784;2023-06-26T04:11:12;101248.56;;;31.45;38.82
48848;BME280;36611;51.638;5.784;2023-06-26T04:13:38;101247.72;;;31.45;38.72
48848;BME280;36611;51.638;5.784;2023-06-26T04:16:05;101248.56;;;31.45;38.62
48848;BME280;36611;51.638;5.784;2023-06-26T04:18:33;101245.78;;;31.45;38.50
48848;BME280;36611;51.638;5.784;2023-06-26T04:21:10;101263.28;;;31.46;38.50
48848;BME280;36611;51.638;5.784;2023-06-26T04:23:40;101265.47;;;31.44;38.83
48848;BME280;36611;51.638;5.784;2023-06-26T04:26:08;101266.31;;;31.44;38.60
48848;BME280;36611;51.638;5.784;2023-06-26T04:28:35;101271.88;;;31.44;38.22
48848;BME280;36611;51.638;5.784;2023-06-26T04:31:02;101277.41;;;31.44;38.40
48848;BME280;36611;51.638;5.784;2023-06-26T04:33:32;101272.94;;;31.43;38.50
48848;BME280;36611;51.638;5.784;2023-06-26T04:35:58;101282.13;;;31.44;38.61
48848;BME280;36611;51.638;5.784;2023-06-26T04:38:26;101286.81;;;31.43;38.45
48848;BME280;36611;51.638;5.784;2023-06-26T04:40:52;101281.28;;;31.43;38.48
48848;BME280;36611;51.638;5.784;2023-06-26T04:43:19;101282.13;;;31.44;38.48
48848;BME280;36611;51.638;5.784;2023-06-26T04:45:45;101288.75;;;31.43;38.54
48848;BME280;36611;51.638;5.784;2023-06-26T04:48:12;101283.19;;;31.43;38.48
48848;BME280;36611;51.638;5.784;2023-06-26T04:50:39;101296.00;;;31.44;38.39
48848;BME280;36611;51.638;5.784;2023-06-26T04:53:07;101293.22;;;31.44;38.61
48848;BME280;36611;51.638;5.784;2023-06-26T04:55:35;101302.63;;;31.43;38.35
48848;BME280;36611;51.638;5.784;2023-06-26T04:58:05;101300.69;;;31.43;38.51
48848;BME280;36611;51.638;5.784;2023-06-26T05:00:31;101307.34;;;31.42;38.04
48848;BME280;36611;51.638;5.784;2023-06-26T05:02:59;101304.56;;;31.42;38.19
48848;BME280;36611;51.638;5.784;2023-06-26T05:05:27;101306.50;;;31.42;38.29
48848;BME280;36611;51.638;5.784;2023-06-26T05:07:55;101304.56;;;31.42;38.24
48848;BME280;36611;51.638;5.784;2023-06-26T05:10:22;101303.72;;;31.42;38.46
48848;BME280;36611;51.638;5.784;2023-06-26T05:12:49;101301.78;;;31.42;38.67
48848;BME280;36611;51.638;5.784;2023-06-26T05:15:15;101308.19;;;31.43;38.43
48848;BME280;36611;51.638;5.784;2023-06-26T05:17:42;101311.19;;;31.41;38.58
48848;BME280;36611;51.638;5.784;2023-06-26T05:20:09;101309.03;;;31.43;38.26
48848;BME280;36611;51.638;5.784;2023-06-26T05:22:37;101306.25;;;31.43;38.41
48848;BME280;36611;51.638;5.784;2023-06-26T05:25:07;101309.28;;;31.42;38.27
48848;BME280;36611;51.638;5.784;2023-06-26T05:27:35;101307.34;;;31.42;38.55
48848;BME280;36611;51.638;5.784;2023-06-26T05:30:02;101312.03;;;31.42;38.41
48848;BME280;36611;51.638;5.784;2023-06-26T05:32:30;101323.16;;;31.42;38.23
48848;BME280;36611;51.638;5.784;2023-06-26T05:35:01;101325.06;;;31.41;38.52
48848;BME280;36611;51.638;5.784;2023-06-26T05:37:29;101319.53;;;31.41;38.24
48848;BME280;36611;51.638;5.784;2023-06-26T05:39:57;101321.44;;;31.41;38.49
48848;BME280;36611;51.638;5.784;2023-06-26T05:42:24;101328.69;;;31.42;38.45
48848;BME280;36611;51.638;5.784;2023-06-26T05:44:50;101336.19;;;31.41;38.12
48848;BME280;36611;51.638;5.784;2023-06-26T05:47:17;101341.72;;;31.41;38.33
48848;BME280;36611;51.638;5.784;2023-06-26T05:49:44;101352.84;;;31.41;38.30
48848;BME280;36611;51.638;5.784;2023-06-26T05:52:11;101351.75;;;31.42;38.45
48848;BME280;36611;51.638;5.784;2023-06-26T05:54:38;101361.16;;;31.41;38.55
48848;BME280;36611;51.638;5.784;2023-06-26T05:57:05;101360.09;;;31.42;38.33
48848;BME280;36611;51.638;5.784;2023-06-26T05:59:32;101355.59;;;31.41;38.44
48848;BME280;36611;51.638;5.784;2023-06-26T06:01:58;101361.16;;;31.41;38.08
48848;BME280;36611;51.638;5.784;2023-06-26T06:04:25;101366.72;;;31.41;38.06
48848;BME280;36611;51.638;5.784;2023-06-26T06:06:52;101373.13;;;31.42;38.16
48848;BME280;36611;51.638;5.784;2023-06-26T06:09:18;101379.50;;;31.42;38.39
48848;BME280;36611;51.638;5.784;2023-06-26T06:11:45;101378.66;;;31.42;38.18
48848;BME280;36611;51.638;5.784;2023-06-26T06:14:12;101380.59;;;31.41;38.17
48848;BME280;36611;51.638;5.784;2023-06-26T06:16:38;101387.00;;;31.42;38.06
48848;BME280;36611;51.638;5.784;2023-06-26T06:19:05;101387.00;;;31.42;38.40
48848;BME280;36611;51.638;5.784;2023-06-26T06:21:34;101393.41;;;31.42;38.04
48848;BME280;36611;51.638;5.784;2023-06-26T06:24:00;101394.47;;;31.41;38.34
48848;BME280;36611;51.638;5.784;2023-06-26T06:26:27;101402.81;;;31.41;38.32
48848;BME280;36611;51.638;5.784;2023-06-26T06:28:54;101415.84;;;31.41;38.22
48848;BME280;36611;51.638;5.784;2023-06-26T06:31:20;101411.97;;;31.42;37.91
48848;BME280;36611;51.638;5.784;2023-06-26T06:33:47;101420.31;;;31.42;38.22
48848;BME280;36611;51.638;5.784;2023-06-26T06:36:14;101423.31;;;31.40;38.08
48848;BME280;36611;51.638;5.784;2023-06-26T06:38:43;101428.63;;;31.42;38.32
48848;BME280;36611;51.638;5.784;2023-06-26T06:41:10;101427.78;;;31.41;37.97
48848;BME280;36611;51.638;5.784;2023-06-26T06:43:36;101416.69;;;31.41;38.01
48848;BME280;36611;51.638;5.784;2023-06-26T06:46:04;101422.22;;;31.41;37.91
48848;BME280;36611;51.638;5.784;2023-06-26T06:48:31;101419.47;;;31.41;37.91
48848;BME280;36611;51.638;5.784;2023-06-26T06:50:57;101408.34;;;31.41;38.07
48848;BME280;36611;51.638;5.784;2023-06-26T06:53:24;101419.47;;;31.41;37.85
48848;BME280;36611;51.638;5.784;2023-06-26T06:55:50;101423.31;;;31.40;37.69
48848;BME280;36611;51.638;5.784;2023-06-26T06:58:17;101422.22;;;31.41;37.67
48848;BME280;36611;51.638;5.784;2023-06-26T07:00:45;101435.25;;;31.41;37.96
48848;BME280;36611;51.638;5.784;2023-06-26T07:03:12;101438.88;;;31.41;37.82
48848;BME280;36611;51.638;5.784;2023-06-26T07:05:41;101446.13;;;31.42;37.84
48848;BME280;36611;51.638;5.784;2023-06-26T07:08:08;101444.44;;;31.41;37.61
48848;BME280;36611;51.638;5.784;2023-06-26T07:10:35;101450.00;;;31.41;37.84
48848;BME280;36611;51.638;5.784;2023-06-26T07:13:02;101441.66;;;31.41;37.47
48848;BME280;36611;51.638;5.784;2023-06-26T07:15:28;101458.31;;;31.41;37.94
48848;BME280;36611;51.638;5.784;2023-06-26T07:17:55;101462.78;;;31.42;37.89
48848;BME280;36611;51.638;5.784;2023-06-26T07:20:22;101469.41;;;31.41;37.75
48848;BME280;36611;51.638;5.784;2023-06-26T07:22:48;101478.59;;;31.42;37.74
48848;BME280;36611;51.638;5.784;2023-06-26T07:25:15;101481.38;;;31.42;37.61
48848;BME280;36611;51.638;5.784;2023-06-26T07:27:42;101469.41;;;31.41;37.60
48848;BME280;36611;51.638;5.784;2023-06-26T07:30:09;101470.28;;;31.42;37.80
48848;BME280;36611;51.638;5.784;2023-06-26T07:32:39;101474.75;;;31.43;37.35
48848;BME280;36611;51.638;5.784;2023-06-26T07:35:09;101474.13;;;31.41;37.54
48848;BME280;36611;51.638;5.784;2023-06-26T07:37:36;101492.47;;;31.42;37.56
48848;BME280;36611;51.638;5.784;2023-06-26T07:40:02;101487.78;;;31.42;37.57
48848;BME280;36611;51.638;5.784;2023-06-26T07:42:29;101486.06;;;31.41;37.51
48848;BME280;36611;51.638;5.784;2023-06-26T07:44:56;101492.72;;;31.40;37.42
48848;BME280;36611;51.638;5.784;2023-06-26T07:47:23;101500.81;;;31.42;37.55
48848;BME280;36611;51.638;5.784;2023-06-26T07:49:49;101505.50;;;31.41;37.16
48848;BME280;36611;51.638;5.784;2023-06-26T07:52:18;101497.81;;;31.43;37.18
48848;BME280;36611;51.638;5.784;2023-06-26T07:54:45;101508.28;;;31.41;37.71
48848;BME280;36611;51.638;5.784;2023-06-26T07:57:11;101503.59;;;31.42;37.45
48848;BME280;36611;51.638;5.784;2023-06-26T07:59:39;101501.66;;;31.42;37.20
48848;BME280;36611;51.638;5.784;2023-06-26T08:02:05;101512.75;;;31.42;37.35
48848;BME280;36611;51.638;5.784;2023-06-26T08:04:32;101511.91;;;31.42;37.28
48848;BME280;36611;51.638;5.784;2023-06-26T08:07:01;101523.88;;;31.42;37.16
48848;BME280;36611;51.638;5.784;2023-06-26T08:09:29;101515.53;;;31.42;37.39
48848;BME280;36611;51.638;5.784;2023-06-26T08:11:56;101515.53;;;31.42;37.22
48848;BME280;36611;51.638;5.784;2023-06-26T08:14:23;101512.75;;;31.42;37.20
48848;BME280;36611;51.638;5.784;2023-06-26T08:16:50;101512.75;;;31.42;37.01
48848;BME280;36611;51.638;5.784;2023-06-26T08:19:17;101510.22;;;31.41;37.13
48848;BME280;36611;51.638;5.784;2023-06-26T08:21:45;101507.22;;;31.42;37.04
48848;BME280;36611;51.638;5.784;2023-06-26T08:24:12;101511.91;;;31.42;36.90
48848;BME280;36611;51.638;5.784;2023-06-26T08:26:46;101505.50;;;31.41;37.08
48848;BME280;36611;51.638;5.784;2023-06-26T08:29:13;101528.56;;;31.42;36.65
48848;BME280;36611;51.638;5.784;2023-06-26T08:31:40;101511.91;;;31.42;37.00
48848;BME280;36611;51.638;5.784;2023-06-26T08:34:07;101532.19;;;31.42;37.10
48848;BME280;36611;51.638;5.784;2023-06-26T08:36:34;101540.53;;;31.42;36.78
48848;BME280;36611;51.638;5.784;2023-06-26T08:39:01;101525.78;;;31.42;36.61
48848;BME280;36611;51.638;5.784;2023-06-26T08:41:27;101554.41;;;31.42;36.87
48848;BME280;36611;51.638;5.784;2023-06-26T08:43:54;101540.53;;;31.42;36.93
48848;BME280;36611;51.638;5.784;2023-06-26T08:46:21;101544.38;;;31.41;36.71
48848;BME280;36611;51.638;5.784;2023-06-26T08:49:00;101547.78;;;31.43;36.73
48848;BME280;36611;51.638;5.784;2023-06-26T08:51:30;101540.53;;;31.42;36.40
48848;BME280;36611;51.638;5.784;2023-06-26T08:53:59;101540.53;;;31.42;36.76
48848;BME280;36611;51.638;5.784;2023-06-26T08:56:36;101546.91;;;31.43;36.34
48848;BME280;36611;51.638;5.784;2023-06-26T08:59:04;101545.22;;;31.42;36.67
48848;BME280;36611;51.638;5.784;2023-06-26T09:01:31;101548.00;;;31.42;36.38
48848;BME280;36611;51.638;5.784;2023-06-26T09:03:58;101551.63;;;31.42;36.51
48848;BME280;36611;51.638;5.784;2023-06-26T09:06:25;101551.63;;;31.42;36.77
48848;BME280;36611;51.638;5.784;2023-06-26T09:08:52;101551.63;;;31.42;36.26
48848;BME280;36611;51.638;5.784;2023-06-26T09:11:18;101568.28;;;31.42;36.63
48848;BME280;36611;51.638;5.784;2023-06-26T09:13:45;101549.94;;;31.41;36.41
48848;BME280;36611;51.638;5.784;2023-06-26T09:16:14;101571.06;;;31.42;36.68
48848;BME280;36611;51.638;5.784;2023-06-26T09:18:41;101573.84;;;31.42;36.32
48848;BME280;36611;51.638;5.784;2023-06-26T09:21:09;101566.34;;;31.43;36.36
48848;BME280;36611;51.638;5.784;2023-06-26T09:23:36;101578.53;;;31.42;36.35
48848;BME280;36611;51.638;5.784;2023-06-26T09:26:04;101579.38;;;31.42;36.18
48848;BME280;36611;51.638;5.784;2023-06-26T09:28:35;101585.78;;;31.43;36.36
48848;BME280;36611;51.638;5.784;2023-06-26T09:31:07;101607.16;;;31.42;36.21
48848;BME280;36611;51.638;5.784;2023-06-26T09:33:36;101595.19;;;31.42;36.18
48848;BME280;36611;51.638;5.784;2023-06-26T09:36:07;101586.84;;;31.42;36.44
48848;BME280;36611;51.638;5.784;2023-06-26T09:38:36;101580.47;;;31.41;36.24
48848;BME280;36611;51.638;5.784;2023-06-26T09:41:03;101589.63;;;31.42;36.05
48848;BME280;36611;51.638;5.784;2023-06-26T09:43:30;101604.38;;;31.42;35.92
48848;BME280;36611;51.638;5.784;2023-06-26T09:45:58;101583.25;;;31.41;36.02
48848;BME280;36611;51.638;5.784;2023-06-26T09:48:27;101597.97;;;31.42;35.94
48848;BME280;36611;51.638;5.784;2023-06-26T09:50:55;101606.28;;;31.42;36.20
48848;BME280;36611;51.638;5.784;2023-06-26T09:53:37;101612.69;;;31.42;36.01
48848;BME280;36611;51.638;5.784;2023-06-26T09:56:07;101606.28;;;31.42;35.82
48848;BME280;36611;51.638;5.784;2023-06-26T09:58:36;101618.25;;;31.42;35.96
48848;BME280;36611;51.638;5.784;2023-06-26T10:01:03;101621.25;;;31.41;35.76
48848;BME280;36611;51.638;5.784;2023-06-26T10:03:30;101628.50;;;31.42;36.26
48848;BME280;36611;51.638;5.784;2023-06-26T10:05:57;101639.59;;;31.42;36.09
48848;BME280;36611;51.638;5.784;2023-06-26T10:08:25;101613.78;;;31.41;35.94
48848;BME280;36611;51.638;5.784;2023-06-26T10:10:52;101623.81;;;31.42;35.76
48848;BME280;36611;51.638;5.784;2023-06-26T10:13:22;101619.09;;;31.43;35.64
48848;BME280;36611;51.638;5.784;2023-06-26T10:15:51;101618.47;;;31.41;35.97
48848;BME280;36611;51.638;5.784;2023-06-26T10:18:18;101622.09;;;31.41;35.87
48848;BME280;36611;51.638;5.784;2023-06-26T10:20:48;101619.09;;;31.43;35.60
48848;BME280;36611;51.638;5.784;2023-06-26T10:23:16;101622.09;;;31.41;35.76
48848;BME280;36611;51.638;5.784;2023-06-26T10:25:48;101625.72;;;31.42;35.45
48848;BME280;36611;51.638;5.784;2023-06-26T10:28:18;101627.66;;;31.41;35.70
48848;BME280;36611;51.638;5.784;2023-06-26T10:30:46;101632.13;;;31.42;35.53
48848;BME280;36611;51.638;5.784;2023-06-26T10:33:17;101638.75;;;31.41;35.46
48848;BME280;36611;51.638;5.784;2023-06-26T10:35:45;101650.72;;;31.42;35.35
48848;BME280;36611;51.638;5.784;2023-06-26T10:38:12;101644.31;;;31.41;35.39
48848;BME280;36611;51.638;5.784;2023-06-26T10:40:44;101636.84;;;31.42;35.23
48848;BME280;36611;51.638;5.784;2023-06-26T10:43:15;101632.34;;;31.41;35.46
48848;BME280;36611;51.638;5.784;2023-06-26T10:45:47;101647.94;;;31.42;35.11
48848;BME280;36611;51.638;5.784;2023-06-26T10:48:20;101633.22;;;31.41;35.24
48848;BME280;36611;51.638;5.784;2023-06-26T10:50:47;101643.47;;;31.41;35.08
48848;BME280;36611;51.638;5.784;2023-06-26T10:53:15;101654.56;;;31.41;35.21
48848;BME280;36611;51.638;5.784;2023-06-26T10:56:04;101650.94;;;31.40;35.22
48848;BME280;36611;51.638;5.784;2023-06-26T11:03:46;101675.94;;;31.40;34.78
48848;BME280;36611;51.638;5.784;2023-06-26T11:06:19;101664.81;;;31.40;34.79
48848;BME280;36611;51.638;5.784;2023-06-26T11:08:58;101658.19;;;31.41;34.94
48848;BME280;36611;51.638;5.784;2023-06-26T11:14:22;101669.75;;;31.38;34.66
48848;BME280;36611;51.638;5.784;2023-06-26T11:16:49;101690.03;;;31.39;34.75
48848;BME280;36611;51.638;5.784;2023-06-26T11:19:17;101670.59;;;31.39;34.51
48848;BME280;36611;51.638;5.784;2023-06-26T11:21:44;101681.47;;;31.40;34.46
48848;BME280;36611;51.638;5.784;2023-06-26T11:24:13;101674.22;;;31.39;34.49
48848;BME280;36611;51.638;5.784;2023-06-26T11:26:43;101678.69;;;31.40;34.21
48848;BME280;36611;51.638;5.784;2023-06-26T11:29:11;101678.69;;;31.40;34.37
48848;BME280;36611;51.638;5.784;2023-06-26T11:31:40;101678.69;;;31.40;34.16
48848;BME280;36611;51.638;5.784;2023-06-26T11:34:09;101675.06;;;31.40;34.07
48848;BME280;36611;51.638;5.784;2023-06-26T11:36:39;101674.00;;;31.41;34.46
48848;BME280;36611;51.638;5.784;2023-06-26T11:39:08;101684.25;;;31.40;34.27
48848;BME280;36611;51.638;5.784;2023-06-26T11:41:36;101694.50;;;31.40;34.13
48848;BME280;36611;51.638;5.784;2023-06-26T11:44:05;101694.50;;;31.40;33.88
48848;BME280;36611;51.638;5.784;2023-06-26T11:46:34;101699.84;;;31.41;34.09
48848;BME280;36611;51.638;5.784;2023-06-26T11:49:05;101704.31;;;31.42;33.77
48848;BME280;36611;51.638;5.784;2023-06-26T11:51:32;101702.59;;;31.41;34.00
48848;BME280;36611;51.638;5.784;2023-06-26T11:54:01;101719.25;;;31.41;33.88
48848;BME280;36611;51.638;5.784;2023-06-26T11:56:31;101713.72;;;31.41;34.05
48848;BME280;36611;51.638;5.784;2023-06-26T11:58:59;101725.66;;;31.42;33.84
48848;BME280;36611;51.638;5.784;2023-06-26T12:01:44;101721.81;;;31.43;34.06
48848;BME280;36611;51.638;5.784;2023-06-26T12:04:12;101720.34;;;31.40;33.73
48848;BME280;36611;51.638;5.784;2023-06-26T12:06:46;101726.75;;;31.41;34.00
48848;BME280;36611;51.638;5.784;2023-06-26T12:09:13;101730.38;;;31.41;33.74
48848;BME280;36611;51.638;5.784;2023-06-26T12:11:42;101733.16;;;31.41;33.83
48848;BME280;36611;51.638;5.784;2023-06-26T12:14:10;101731.44;;;31.40;33.93
48848;BME280;36611;51.638;5.784;2023-06-26T12:16:38;101738.69;;;31.41;33.92
48848;BME280;36611;51.638;5.784;2023-06-26T12:19:06;101744.25;;;31.41;33.84
48848;BME280;36611;51.638;5.784;2023-06-26T12:24:00;101742.31;;;31.42;33.94
48848;BME280;36611;51.638;5.784;2023-06-26T12:26:30;101738.69;;;31.41;33.55
48848;BME280;36611;51.638;5.784;2023-06-26T12:29:04;101744.25;;;31.41;33.66
48848;BME280;36611;51.638;5.784;2023-06-26T12:31:31;101741.47;;;31.41;33.60
48848;BME280;36611;51.638;5.784;2023-06-26T12:33:58;101743.41;;;31.41;33.84
48848;BME280;36611;51.638;5.784;2023-06-26T12:36:25;101748.94;;;31.41;33.39
48848;BME280;36611;51.638;5.784;2023-06-26T12:38:53;101736.78;;;31.42;33.68
48848;BME280;36611;51.638;5.784;2023-06-26T12:41:20;101745.94;;;31.42;33.67
48848;BME280;36611;51.638;5.784;2023-06-26T12:43:55;101733.16;;;31.41;33.37
48848;BME280;36611;51.638;5.784;2023-06-26T12:46:33;101736.78;;;31.42;33.53
48848;BME280;36611;51.638;5.784;2023-06-26T12:49:01;101738.69;;;31.41;33.38
48848;BME280;36611;51.638;5.784;2023-06-26T12:51:37;101737.84;;;31.41;33.37
48848;BME280;36611;51.638;5.784;2023-06-26T12:54:04;101727.59;;;31.41;33.65
48848;BME280;36611;51.638;5.784;2023-06-26T12:56:30;101738.69;;;31.41;33.65
48848;BME280;36611;51.638;5.784;2023-06-26T12:58:57;101733.16;;;31.41;33.23
48848;BME280;36611;51.638;5.784;2023-06-26T13:01:24;101732.06;;;31.42;33.44
48848;BME280;36611;51.638;5.784;2023-06-26T13:03:51;101733.16;;;31.41;33.51
48848;BME280;36611;51.638;5.784;2023-06-26T13:06:18;101727.59;;;31.41;33.29
48848;BME280;36611;51.638;5.784;2023-06-26T13:08:45;101727.59;;;31.41;33.35
48848;BME280;36611;51.638;5.784;2023-06-26T13:11:11;101727.59;;;31.41;33.50